sensor_id;sensor_type;location;lat;lon;timestamp;temperature;humidity
18974;DHT22;9621;48.690;9.466;2022-10-16T00:01:04;13.20;99.90
18974;DHT22;9621;48.690;9.466;2022-10-16T00:03:32;13.00;99.90
18974;DHT22;9621;48.690;9.466;2022-10-16T00:06:00;13.00;99.90
18974;DHT22;9621;48.690;9.466;2022-10-16T00:08:28;13.00;99.90
18974;DHT22;9621;48.690;9.466;2022-10-16T00:10:59;13.00;99.90
18974;DHT22;9621;48.690;9.466;2022-10-16T00:13:26;13.10;99.90
18974;DHT22;9621;48.690;9.466;2022-10-16T00:15:55;12.90;99.90
18974;DHT22;9621;48.690;9.466;2022-10-16T00:18:24;12.90;99.90
18974;DHT22;9621;48.690;9.466;2022-10-16T00:20:51;12.90;99.90
18974;DHT22;9621;48.690;9.466;2022-10-16T00:23:18;12.90;99.90
18974;DHT22;9621;48.690;9.466;2022-10-16T00:25:44;12.90;99.90
18974;DHT22;9621;48.690;9.466;2022-10-16T00:28:11;12.80;99.90
18974;DHT22;9621;48.690;9.466;2022-10-16T00:30:38;12.80;99.90
18974;DHT22;9621;48.690;9.466;2022-10-16T00:33:05;12.80;99.90
18974;DHT22;9621;48.690;9.466;2022-10-16T00:35:33;12.70;99.90
18974;DHT22;9621;48.690;9.466;2022-10-16T00:38:00;12.70;99.90
18974;DHT22;9621;48.690;9.466;2022-10-16T00:40:27;12.60;99.90
18974;DHT22;9621;48.690;9.466;2022-10-16T00:42:55;12.80;99.90
18974;DHT22;9621;48.690;9.466;2022-10-16T00:45:21;12.60;99.90
18974;DHT22;9621;48.690;9.466;2022-10-16T00:47:50;12.60;99.90
18974;DHT22;9621;48.690;9.466;2022-10-16T00:50:24;12.50;99.90
18974;DHT22;9621;48.690;9.466;2022-10-16T00:52:55;12.60;99.90
18974;DHT22;9621;48.690;9.466;2022-10-16T00:55:22;12.50;99.90
18974;DHT22;9621;48.690;9.466;2022-10-16T00:57:50;12.50;99.90
18974;DHT22;9621;48.690;9.466;2022-10-16T01:00:21;12.40;99.90
18974;DHT22;9621;48.690;9.466;2022-10-16T01:02:52;12.30;99.90
18974;DHT22;9621;48.690;9.466;2022-10-16T01:05:20;12.30;99.90
18974;DHT22;9621;48.690;9.466;2022-10-16T01:07:56;12.20;99.90
18974;DHT22;9621;48.690;9.466;2022-10-16T01:10:38;12.20;99.90
18974;DHT22;9621;48.690;9.466;2022-10-16T01:13:07;12.20;99.90
18974;DHT22;9621;48.690;9.466;2022-10-16T01:15:37;12.10;99.90
18974;DHT22;9621;48.690;9.466;2022-10-16T01:18:11;12.10;99.90
18974;DHT22;9621;48.690;9.466;2022-10-16T01:20:44;12.00;99.90
18974;DHT22;9621;48.690;9.466;2022-10-16T01:23:24;12.10;99.90
18974;DHT22;9621;48.690;9.466;2022-10-16T01:28:42;12.00;99.90
18974;DHT22;9621;48.690;9.466;2022-10-16T01:31:14;12.00;99.90
18974;DHT22;9621;48.690;9.466;2022-10-16T01:33:44;12.00;99.90
18974;DHT22;9621;48.690;9.466;2022-10-16T01:36:14;12.00;99.90
18974;DHT22;9621;48.690;9.466;2022-10-16T01:38:44;12.00;99.90
18974;DHT22;9621;48.690;9.466;2022-10-16T01:41:15;12.00;99.90
18974;DHT22;9621;48.690;9.466;2022-10-16T01:43:48;12.00;99.90
18974;DHT22;9621;48.690;9.466;2022-10-16T01:46:17;12.00;99.90
18974;DHT22;9621;48.690;9.466;2022-10-16T01:48:45;12.00;99.90
18974;DHT22;9621;48.690;9.466;2022-10-16T01:51:13;12.00;99.90
18974;DHT22;9621;48.690;9.466;2022-10-16T01:53:44;12.00;99.90
18974;DHT22;9621;48.690;9.466;2022-10-16T01:56:14;12.00;99.90
18974;DHT22;9621;48.690;9.466;2022-10-16T01:58:47;12.00;99.90
18974;DHT22;9621;48.690;9.466;2022-10-16T02:01:17;12.00;99.90
18974;DHT22;9621;48.690;9.466;2022-10-16T02:03:46;11.90;99.90
18974;DHT22;9621;48.690;9.466;2022-10-16T02:06:15;11.90;99.90
18974;DHT22;9621;48.690;9.466;2022-10-16T02:08:42;11.90;99.90
18974;DHT22;9621;48.690;9.466;2022-10-16T02:11:10;12.00;99.90
18974;DHT22;9621;48.690;9.466;2022-10-16T02:13:39;11.90;99.90
18974;DHT22;9621;48.690;9.466;2022-10-16T02:16:12;12.00;99.90
18974;DHT22;9621;48.690;9.466;2022-10-16T02:18:39;12.00;99.90
18974;DHT22;9621;48.690;9.466;2022-10-16T02:21:12;11.90;99.90
18974;DHT22;9621;48.690;9.466;2022-10-16T02:23:46;12.00;99.90
18974;DHT22;9621;48.690;9.466;2022-10-16T02:26:18;12.00;99.90
18974;DHT22;9621;48.690;9.466;2022-10-16T02:28:51;12.00;99.90
18974;DHT22;9621;48.690;9.466;2022-10-16T02:31:24;12.00;99.90
18974;DHT22;9621;48.690;9.466;2022-10-16T02:33:54;12.00;99.90
18974;DHT22;9621;48.690;9.466;2022-10-16T02:36:23;12.10;99.90
18974;DHT22;9621;48.690;9.466;2022-10-16T02:38:50;12.10;99.90
18974;DHT22;9621;48.690;9.466;2022-10-16T02:41:18;12.00;99.90
18974;DHT22;9621;48.690;9.466;2022-10-16T02:43:47;12.00;99.90
18974;DHT22;9621;48.690;9.466;2022-10-16T02:46:14;12.10;99.90
18974;DHT22;9621;48.690;9.466;2022-10-16T02:48:43;12.10;99.90
18974;DHT22;9621;48.690;9.466;2022-10-16T02:51:10;12.10;99.90
18974;DHT22;9621;48.690;9.466;2022-10-16T02:53:37;12.10;99.90
18974;DHT22;9621;48.690;9.466;2022-10-16T02:56:04;12.10;99.90
18974;DHT22;9621;48.690;9.466;2022-10-16T02:58:31;12.10;99.90
18974;DHT22;9621;48.690;9.466;2022-10-16T03:00:58;12.10;99.90
18974;DHT22;9621;48.690;9.466;2022-10-16T03:03:25;12.10;99.90
18974;DHT22;9621;48.690;9.466;2022-10-16T03:05:53;12.10;99.90
18974;DHT22;9621;48.690;9.466;2022-10-16T03:08:20;12.10;99.90
18974;DHT22;9621;48.690;9.466;2022-10-16T03:10:49;12.10;99.90
18974;DHT22;9621;48.690;9.466;2022-10-16T03:13:16;12.10;99.90
18974;DHT22;9621;48.690;9.466;2022-10-16T03:15:45;12.10;99.90
18974;DHT22;9621;48.690;9.466;2022-10-16T03:18:12;12.10;99.90
18974;DHT22;9621;48.690;9.466;2022-10-16T03:20:39;12.10;99.90
18974;DHT22;9621;48.690;9.466;2022-10-16T03:23:08;12.10;99.90
18974;DHT22;9621;48.690;9.466;2022-10-16T03:25:35;12.10;99.90
18974;DHT22;9621;48.690;9.466;2022-10-16T03:28:02;12.10;99.90
18974;DHT22;9621;48.690;9.466;2022-10-16T03:30:29;12.20;99.90
18974;DHT22;9621;48.690;9.466;2022-10-16T03:32:56;12.10;99.90
18974;DHT22;9621;48.690;9.466;2022-10-16T03:35:24;12.10;99.90
18974;DHT22;9621;48.690;9.466;2022-10-16T03:37:51;12.10;99.90
18974;DHT22;9621;48.690;9.466;2022-10-16T03:40:19;12.00;99.90
18974;DHT22;9621;48.690;9.466;2022-10-16T03:42:46;12.00;99.90
18974;DHT22;9621;48.690;9.466;2022-10-16T03:45:13;12.00;99.90
18974;DHT22;9621;48.690;9.466;2022-10-16T03:47:39;12.00;99.90
18974;DHT22;9621;48.690;9.466;2022-10-16T03:50:07;12.00;99.90
18974;DHT22;9621;48.690;9.466;2022-10-16T03:52:34;12.00;99.90
18974;DHT22;9621;48.690;9.466;2022-10-16T03:55:01;11.90;99.90
18974;DHT22;9621;48.690;9.466;2022-10-16T03:57:29;11.90;99.90
18974;DHT22;9621;48.690;9.466;2022-10-16T03:59:56;11.90;99.90
18974;DHT22;9621;48.690;9.466;2022-10-16T04:02:23;11.90;99.90
18974;DHT22;9621;48.690;9.466;2022-10-16T04:04:50;11.90;99.90
18974;DHT22;9621;48.690;9.466;2022-10-16T04:07:17;11.90;99.90
18974;DHT22;9621;48.690;9.466;2022-10-16T04:09:44;11.80;99.90
18974;DHT22;9621;48.690;9.466;2022-10-16T04:12:11;11.80;99.90
18974;DHT22;9621;48.690;9.466;2022-10-16T04:14:39;11.90;99.90
18974;DHT22;9621;48.690;9.466;2022-10-16T04:17:06;11.80;99.90
18974;DHT22;9621;48.690;9.466;2022-10-16T04:19:33;11.80;99.90
18974;DHT22;9621;48.690;9.466;2022-10-16T04:21:59;11.70;99.90
18974;DHT22;9621;48.690;9.466;2022-10-16T04:24:26;11.70;99.90
18974;DHT22;9621;48.690;9.466;2022-10-16T04:26:53;11.70;99.90
18974;DHT22;9621;48.690;9.466;2022-10-16T04:29:20;11.70;99.90
18974;DHT22;9621;48.690;9.466;2022-10-16T04:31:48;11.70;99.90
18974;DHT22;9621;48.690;9.466;2022-10-16T04:34:15;11.60;99.90
18974;DHT22;9621;48.690;9.466;2022-10-16T04:36:42;11.60;99.90
18974;DHT22;9621;48.690;9.466;2022-10-16T04:39:08;11.60;99.90
18974;DHT22;9621;48.690;9.466;2022-10-16T04:41:35;11.60;99.90
18974;DHT22;9621;48.690;9.466;2022-10-16T04:44:02;11.60;99.90
18974;DHT22;9621;48.690;9.466;2022-10-16T04:46:29;11.60;99.90
18974;DHT22;9621;48.690;9.466;2022-10-16T07:11:03;11.80;99.90
18974;DHT22;9621;48.690;9.466;2022-10-16T07:13:33;13.40;99.90
18974;DHT22;9621;48.690;9.466;2022-10-16T07:16:04;12.60;99.90
18974;DHT22;9621;48.690;9.466;2022-10-16T07:18:31;13.20;99.90
18974;DHT22;9621;48.690;9.466;2022-10-16T07:21:03;13.40;99.90
18974;DHT22;9621;48.690;9.466;2022-10-16T07:23:30;13.60;99.90
18974;DHT22;9621;48.690;9.466;2022-10-16T07:25:57;13.70;99.90
18974;DHT22;9621;48.690;9.466;2022-10-16T07:28:25;13.70;99.90
18974;DHT22;9621;48.690;9.466;2022-10-16T07:30:52;13.80;99.90
18974;DHT22;9621;48.690;9.466;2022-10-16T07:33:20;14.00;99.90
18974;DHT22;9621;48.690;9.466;2022-10-16T07:35:48;14.00;99.90
18974;DHT22;9621;48.690;9.466;2022-10-16T07:38:15;14.00;99.90
18974;DHT22;9621;48.690;9.466;2022-10-16T07:40:42;14.10;99.90
18974;DHT22;9621;48.690;9.466;2022-10-16T07:43:09;14.20;99.90
18974;DHT22;9621;48.690;9.466;2022-10-16T07:45:46;14.20;99.90
18974;DHT22;9621;48.690;9.466;2022-10-16T07:48:13;14.30;99.90
18974;DHT22;9621;48.690;9.466;2022-10-16T07:50:40;14.40;99.90
18974;DHT22;9621;48.690;9.466;2022-10-16T07:53:07;14.50;99.90
18974;DHT22;9621;48.690;9.466;2022-10-16T07:55:34;14.60;99.90
18974;DHT22;9621;48.690;9.466;2022-10-16T07:58:01;14.60;99.90
18974;DHT22;9621;48.690;9.466;2022-10-16T08:00:28;14.70;99.90
18974;DHT22;9621;48.690;9.466;2022-10-16T08:02:56;14.80;99.90
18974;DHT22;9621;48.690;9.466;2022-10-16T08:05:25;14.80;99.90
18974;DHT22;9621;48.690;9.466;2022-10-16T08:07:52;14.90;99.90
18974;DHT22;9621;48.690;9.466;2022-10-16T08:10:21;14.90;99.90
18974;DHT22;9621;48.690;9.466;2022-10-16T08:12:48;15.00;99.90
18974;DHT22;9621;48.690;9.466;2022-10-16T08:15:15;15.00;99.90
18974;DHT22;9621;48.690;9.466;2022-10-16T08:17:42;15.10;99.90
18974;DHT22;9621;48.690;9.466;2022-10-16T08:20:11;15.10;99.90
18974;DHT22;9621;48.690;9.466;2022-10-16T08:22:37;15.20;99.90
18974;DHT22;9621;48.690;9.466;2022-10-16T08:25:05;15.30;99.90
18974;DHT22;9621;48.690;9.466;2022-10-16T08:27:32;15.30;99.90
18974;DHT22;9621;48.690;9.466;2022-10-16T08:29:59;15.40;99.90
18974;DHT22;9621;48.690;9.466;2022-10-16T08:32:26;15.50;99.90
18974;DHT22;9621;48.690;9.466;2022-10-16T08:34:53;15.60;99.90
18974;DHT22;9621;48.690;9.466;2022-10-16T08:37:21;15.70;99.90
18974;DHT22;9621;48.690;9.466;2022-10-16T08:39:50;15.70;99.90
18974;DHT22;9621;48.690;9.466;2022-10-16T08:42:35;15.90;99.90
18974;DHT22;9621;48.690;9.466;2022-10-16T08:45:16;16.00;99.90
18974;DHT22;9621;48.690;9.466;2022-10-16T08:47:51;16.20;99.90
18974;DHT22;9621;48.690;9.466;2022-10-16T08:50:23;16.30;99.90
18974;DHT22;9621;48.690;9.466;2022-10-16T08:52:52;16.40;99.90
18974;DHT22;9621;48.690;9.466;2022-10-16T08:55:31;16.50;99.90
18974;DHT22;9621;48.690;9.466;2022-10-16T08:58:00;16.70;99.90
18974;DHT22;9621;48.690;9.466;2022-10-16T09:00:27;16.90;99.90
18974;DHT22;9621;48.690;9.466;2022-10-16T09:03:03;17.00;99.90
18974;DHT22;9621;48.690;9.466;2022-10-16T09:05:52;17.10;99.90
18974;DHT22;9621;48.690;9.466;2022-10-16T09:08:28;17.30;99.90
18974;DHT22;9621;48.690;9.466;2022-10-16T09:10:59;17.30;99.90
18974;DHT22;9621;48.690;9.466;2022-10-16T09:13:36;17.40;99.90
18974;DHT22;9621;48.690;9.466;2022-10-16T09:16:18;17.40;99.90
18974;DHT22;9621;48.690;9.466;2022-10-16T09:18:52;17.40;99.90
18974;DHT22;9621;48.690;9.466;2022-10-16T09:21:24;17.40;99.90
18974;DHT22;9621;48.690;9.466;2022-10-16T09:23:56;17.40;99.90
18974;DHT22;9621;48.690;9.466;2022-10-16T09:26:25;17.40;99.90
18974;DHT22;9621;48.690;9.466;2022-10-16T09:28:52;17.50;99.90
18974;DHT22;9621;48.690;9.466;2022-10-16T09:31:22;17.60;99.90
18974;DHT22;9621;48.690;9.466;2022-10-16T09:33:52;17.60;99.90
18974;DHT22;9621;48.690;9.466;2022-10-16T09:36:21;17.70;99.90
18974;DHT22;9621;48.690;9.466;2022-10-16T09:38:49;17.80;99.90
18974;DHT22;9621;48.690;9.466;2022-10-16T09:41:22;17.90;99.90
18974;DHT22;9621;48.690;9.466;2022-10-16T09:43:54;18.00;99.90
18974;DHT22;9621;48.690;9.466;2022-10-16T09:46:25;18.20;99.90
18974;DHT22;9621;48.690;9.466;2022-10-16T09:48:55;18.30;99.90
18974;DHT22;9621;48.690;9.466;2022-10-16T09:51:24;18.50;99.90
18974;DHT22;9621;48.690;9.466;2022-10-16T09:53:56;18.70;99.90
18974;DHT22;9621;48.690;9.466;2022-10-16T09:56:26;19.10;99.90
18974;DHT22;9621;48.690;9.466;2022-10-16T09:58:55;19.50;99.90
18974;DHT22;9621;48.690;9.466;2022-10-16T10:01:26;19.90;99.90
18974;DHT22;9621;48.690;9.466;2022-10-16T10:03:57;20.20;99.90
18974;DHT22;9621;48.690;9.466;2022-10-16T10:06:32;20.50;99.90
18974;DHT22;9621;48.690;9.466;2022-10-16T10:09:03;20.80;99.90
18974;DHT22;9621;48.690;9.466;2022-10-16T10:11:48;20.90;99.90
18974;DHT22;9621;48.690;9.466;2022-10-16T10:14:25;21.00;99.90
18974;DHT22;9621;48.690;9.466;2022-10-16T10:17:09;21.00;99.90
18974;DHT22;9621;48.690;9.466;2022-10-16T10:19:39;21.00;99.90
18974;DHT22;9621;48.690;9.466;2022-10-16T10:22:17;20.90;99.90
18974;DHT22;9621;48.690;9.466;2022-10-16T10:24:55;20.90;99.90
18974;DHT22;9621;48.690;9.466;2022-10-16T10:27:28;20.90;99.90
18974;DHT22;9621;48.690;9.466;2022-10-16T10:30:02;20.90;99.90
18974;DHT22;9621;48.690;9.466;2022-10-16T10:32:37;21.20;99.90
18974;DHT22;9621;48.690;9.466;2022-10-16T10:35:15;21.70;99.90
18974;DHT22;9621;48.690;9.466;2022-10-16T10:38:02;22.40;99.90
18974;DHT22;9621;48.690;9.466;2022-10-16T10:40:40;23.00;99.90
18974;DHT22;9621;48.690;9.466;2022-10-16T10:43:21;23.50;99.90
18974;DHT22;9621;48.690;9.466;2022-10-16T10:45:54;23.90;99.90
18974;DHT22;9621;48.690;9.466;2022-10-16T10:48:34;24.20;99.90
18974;DHT22;9621;48.690;9.466;2022-10-16T10:51:12;24.40;99.90
18974;DHT22;9621;48.690;9.466;2022-10-16T10:53:47;24.70;99.90
18974;DHT22;9621;48.690;9.466;2022-10-16T10:56:34;24.70;99.90
18974;DHT22;9621;48.690;9.466;2022-10-16T10:59:33;24.70;99.90
18974;DHT22;9621;48.690;9.466;2022-10-16T11:02:10;24.70;99.90
18974;DHT22;9621;48.690;9.466;2022-10-16T11:04:49;24.70;99.90
18974;DHT22;9621;48.690;9.466;2022-10-16T11:07:22;24.70;99.90
18974;DHT22;9621;48.690;9.466;2022-10-16T11:09:54;24.80;99.90
18974;DHT22;9621;48.690;9.466;2022-10-16T11:12:26;24.90;99.90
18974;DHT22;9621;48.690;9.466;2022-10-16T11:14:58;25.00;99.90
18974;DHT22;9621;48.690;9.466;2022-10-16T11:17:29;25.20;99.90
18974;DHT22;9621;48.690;9.466;2022-10-16T11:20:02;25.40;99.90
18974;DHT22;9621;48.690;9.466;2022-10-16T11:22:34;25.50;99.90
18974;DHT22;9621;48.690;9.466;2022-10-16T11:25:13;25.60;99.90
18974;DHT22;9621;48.690;9.466;2022-10-16T11:27:43;25.70;99.90
18974;DHT22;9621;48.690;9.466;2022-10-16T11:30:17;25.80;99.90
18974;DHT22;9621;48.690;9.466;2022-10-16T11:35:39;25.90;99.90
18974;DHT22;9621;48.690;9.466;2022-10-16T11:38:14;26.00;99.90
18974;DHT22;9621;48.690;9.466;2022-10-16T11:40:43;26.00;99.90
18974;DHT22;9621;48.690;9.466;2022-10-16T11:43:17;26.00;99.90
18974;DHT22;9621;48.690;9.466;2022-10-16T11:45:51;25.80;99.90
18974;DHT22;9621;48.690;9.466;2022-10-16T11:48:25;25.70;99.90
18974;DHT22;9621;48.690;9.466;2022-10-16T11:50:57;25.50;99.90
18974;DHT22;9621;48.690;9.466;2022-10-16T11:53:38;25.30;99.90
18974;DHT22;9621;48.690;9.466;2022-10-16T11:56:12;25.10;99.90
18974;DHT22;9621;48.690;9.466;2022-10-16T11:58:48;24.80;99.90
18974;DHT22;9621;48.690;9.466;2022-10-16T12:01:24;24.70;99.90
18974;DHT22;9621;48.690;9.466;2022-10-16T12:04:04;24.50;99.90
18974;DHT22;9621;48.690;9.466;2022-10-16T12:06:36;24.50;99.90
18974;DHT22;9621;48.690;9.466;2022-10-16T12:09:04;24.40;99.90
18974;DHT22;9621;48.690;9.466;2022-10-16T12:11:34;24.40;99.90
18974;DHT22;9621;48.690;9.466;2022-10-16T12:14:20;24.50;99.90
18974;DHT22;9621;48.690;9.466;2022-10-16T12:16:54;24.50;99.90
18974;DHT22;9621;48.690;9.466;2022-10-16T12:19:23;24.50;99.90
18974;DHT22;9621;48.690;9.466;2022-10-16T12:21:51;24.60;99.90
18974;DHT22;9621;48.690;9.466;2022-10-16T12:24:31;24.60;99.90
18974;DHT22;9621;48.690;9.466;2022-10-16T12:26:59;24.60;99.90
18974;DHT22;9621;48.690;9.466;2022-10-16T12:29:33;24.60;99.90
18974;DHT22;9621;48.690;9.466;2022-10-16T12:32:02;24.60;99.90
18974;DHT22;9621;48.690;9.466;2022-10-16T12:34:37;24.50;99.90
18974;DHT22;9621;48.690;9.466;2022-10-16T12:37:14;24.50;99.50
18974;DHT22;9621;48.690;9.466;2022-10-16T12:39:41;24.50;99.80
18974;DHT22;9621;48.690;9.466;2022-10-16T12:42:22;24.40;99.90
18974;DHT22;9621;48.690;9.466;2022-10-16T12:44:49;24.40;98.80
18974;DHT22;9621;48.690;9.466;2022-10-16T12:47:36;24.30;99.90
18974;DHT22;9621;48.690;9.466;2022-10-16T12:50:21;24.40;98.10
18974;DHT22;9621;48.690;9.466;2022-10-16T12:52:49;24.40;99.90
18974;DHT22;9621;48.690;9.466;2022-10-16T12:55:18;24.30;99.90
18974;DHT22;9621;48.690;9.466;2022-10-16T12:57:58;24.30;99.60
18974;DHT22;9621;48.690;9.466;2022-10-16T13:00:33;24.20;98.00
18974;DHT22;9621;48.690;9.466;2022-10-16T13:03:33;24.20;99.00
18974;DHT22;9621;48.690;9.466;2022-10-16T13:06:13;24.10;97.70
18974;DHT22;9621;48.690;9.466;2022-10-16T13:09:02;24.00;98.30
18974;DHT22;9621;48.690;9.466;2022-10-16T13:11:41;24.00;97.80
18974;DHT22;9621;48.690;9.466;2022-10-16T13:14:33;23.90;98.20
18974;DHT22;9621;48.690;9.466;2022-10-16T13:17:09;23.90;98.10
18974;DHT22;9621;48.690;9.466;2022-10-16T13:19:44;23.80;98.10
18974;DHT22;9621;48.690;9.466;2022-10-16T13:22:20;23.80;98.40
18974;DHT22;9621;48.690;9.466;2022-10-16T13:24:56;23.70;98.90
18974;DHT22;9621;48.690;9.466;2022-10-16T13:27:34;23.70;99.90
18974;DHT22;9621;48.690;9.466;2022-10-16T13:30:11;23.80;98.70
18974;DHT22;9621;48.690;9.466;2022-10-16T13:32:39;23.80;98.00
18974;DHT22;9621;48.690;9.466;2022-10-16T13:35:21;23.90;99.90
18974;DHT22;9621;48.690;9.466;2022-10-16T13:37:49;23.90;97.60
18974;DHT22;9621;48.690;9.466;2022-10-16T13:40:21;23.70;99.30
18974;DHT22;9621;48.690;9.466;2022-10-16T13:42:49;23.70;98.10
18974;DHT22;9621;48.690;9.466;2022-10-16T13:45:20;23.60;99.60
18974;DHT22;9621;48.690;9.466;2022-10-16T13:47:47;23.50;97.50
18974;DHT22;9621;48.690;9.466;2022-10-16T13:50:16;23.40;99.00
18974;DHT22;9621;48.690;9.466;2022-10-16T13:52:45;23.30;98.90
18974;DHT22;9621;48.690;9.466;2022-10-16T13:55:13;23.20;99.00
18974;DHT22;9621;48.690;9.466;2022-10-16T13:57:40;23.10;99.40
18974;DHT22;9621;48.690;9.466;2022-10-16T14:00:21;23.00;99.30
18974;DHT22;9621;48.690;9.466;2022-10-16T14:02:55;22.80;97.30
18974;DHT22;9621;48.690;9.466;2022-10-16T14:05:23;22.70;98.20
18974;DHT22;9621;48.690;9.466;2022-10-16T14:07:54;22.70;99.70
18974;DHT22;9621;48.690;9.466;2022-10-16T14:10:24;22.60;98.70
18974;DHT22;9621;48.690;9.466;2022-10-16T14:12:59;22.50;99.30
18974;DHT22;9621;48.690;9.466;2022-10-16T14:15:27;22.40;98.60
18974;DHT22;9621;48.690;9.466;2022-10-16T14:17:55;22.40;99.90
18974;DHT22;9621;48.690;9.466;2022-10-16T14:20:26;22.30;99.70
18974;DHT22;9621;48.690;9.466;2022-10-16T14:23:04;22.10;98.60
18974;DHT22;9621;48.690;9.466;2022-10-16T14:25:32;22.10;97.80
18974;DHT22;9621;48.690;9.466;2022-10-16T14:28:02;22.10;99.70
18974;DHT22;9621;48.690;9.466;2022-10-16T14:30:30;22.10;99.90
18974;DHT22;9621;48.690;9.466;2022-10-16T14:33:00;22.10;99.90
18974;DHT22;9621;48.690;9.466;2022-10-16T14:35:30;22.10;99.90
18974;DHT22;9621;48.690;9.466;2022-10-16T14:37:59;22.00;99.90
18974;DHT22;9621;48.690;9.466;2022-10-16T14:40:29;22.10;99.90
18974;DHT22;9621;48.690;9.466;2022-10-16T14:42:57;22.00;99.90
18974;DHT22;9621;48.690;9.466;2022-10-16T14:45:27;22.00;99.90
18974;DHT22;9621;48.690;9.466;2022-10-16T14:47:57;22.00;99.90
18974;DHT22;9621;48.690;9.466;2022-10-16T14:50:24;22.00;99.90
18974;DHT22;9621;48.690;9.466;2022-10-16T14:52:52;22.00;99.90
18974;DHT22;9621;48.690;9.466;2022-10-16T14:55:19;22.00;99.90
18974;DHT22;9621;48.690;9.466;2022-10-16T14:57:48;21.90;99.90
18974;DHT22;9621;48.690;9.466;2022-10-16T15:00:18;21.90;99.90
18974;DHT22;9621;48.690;9.466;2022-10-16T15:02:46;21.90;99.90
18974;DHT22;9621;48.690;9.466;2022-10-16T15:05:17;21.80;99.90
18974;DHT22;9621;48.690;9.466;2022-10-16T15:07:44;21.80;99.90
18974;DHT22;9621;48.690;9.466;2022-10-16T15:10:12;21.70;99.90
18974;DHT22;9621;48.690;9.466;2022-10-16T15:12:39;21.70;99.90
18974;DHT22;9621;48.690;9.466;2022-10-16T15:15:24;21.60;99.90
18974;DHT22;9621;48.690;9.466;2022-10-16T15:17:52;21.60;99.90
18974;DHT22;9621;48.690;9.466;2022-10-16T15:20:22;21.60;99.90
18974;DHT22;9621;48.690;9.466;2022-10-16T15:22:48;21.50;99.90
18974;DHT22;9621;48.690;9.466;2022-10-16T15:25:33;21.50;99.90
18974;DHT22;9621;48.690;9.466;2022-10-16T15:28:02;21.40;99.90
18974;DHT22;9621;48.690;9.466;2022-10-16T15:30:31;21.40;99.90
18974;DHT22;9621;48.690;9.466;2022-10-16T15:32:58;21.40;99.90
18974;DHT22;9621;48.690;9.466;2022-10-16T15:35:25;21.30;99.90
18974;DHT22;9621;48.690;9.466;2022-10-16T15:37:52;21.20;99.90
18974;DHT22;9621;48.690;9.466;2022-10-16T15:40:20;21.10;99.90
18974;DHT22;9621;48.690;9.466;2022-10-16T15:42:48;21.00;99.90
18974;DHT22;9621;48.690;9.466;2022-10-16T15:45:15;20.90;99.90
18974;DHT22;9621;48.690;9.466;2022-10-16T15:47:44;20.90;99.90
18974;DHT22;9621;48.690;9.466;2022-10-16T15:50:12;20.70;99.90
18974;DHT22;9621;48.690;9.466;2022-10-16T15:52:39;20.60;99.90
18974;DHT22;9621;48.690;9.466;2022-10-16T15:55:08;20.50;99.90
18974;DHT22;9621;48.690;9.466;2022-10-16T15:57:35;20.40;99.90
18974;DHT22;9621;48.690;9.466;2022-10-16T16:00:05;20.20;99.90
18974;DHT22;9621;48.690;9.466;2022-10-16T16:02:33;20.10;99.90
18974;DHT22;9621;48.690;9.466;2022-10-16T16:05:01;20.10;99.90
18974;DHT22;9621;48.690;9.466;2022-10-16T16:07:30;20.00;99.90
18974;DHT22;9621;48.690;9.466;2022-10-16T16:09:58;19.90;99.90
18974;DHT22;9621;48.690;9.466;2022-10-16T16:12:25;19.90;99.90
18974;DHT22;9621;48.690;9.466;2022-10-16T16:14:52;19.70;99.90
18974;DHT22;9621;48.690;9.466;2022-10-16T16:17:19;19.60;99.90
18974;DHT22;9621;48.690;9.466;2022-10-16T16:19:46;19.60;99.90
18974;DHT22;9621;48.690;9.466;2022-10-16T16:22:14;19.50;99.90
18974;DHT22;9621;48.690;9.466;2022-10-16T16:24:41;19.40;99.90
18974;DHT22;9621;48.690;9.466;2022-10-16T16:27:08;19.30;99.90
18974;DHT22;9621;48.690;9.466;2022-10-16T16:29:35;19.10;99.90
18974;DHT22;9621;48.690;9.466;2022-10-16T16:32:02;19.00;99.90
18974;DHT22;9621;48.690;9.466;2022-10-16T16:34:29;18.90;99.90
18974;DHT22;9621;48.690;9.466;2022-10-16T16:36:56;18.80;99.90
18974;DHT22;9621;48.690;9.466;2022-10-16T16:39:25;18.70;99.90
18974;DHT22;9621;48.690;9.466;2022-10-16T16:41:52;18.60;99.90
18974;DHT22;9621;48.690;9.466;2022-10-16T16:44:18;18.50;99.90
18974;DHT22;9621;48.690;9.466;2022-10-16T16:46:45;18.40;99.90
18974;DHT22;9621;48.690;9.466;2022-10-16T16:49:13;18.30;99.90
18974;DHT22;9621;48.690;9.466;2022-10-16T16:51:41;18.20;99.90
18974;DHT22;9621;48.690;9.466;2022-10-16T16:54:10;18.10;99.90
18974;DHT22;9621;48.690;9.466;2022-10-16T16:56:40;18.00;99.90
18974;DHT22;9621;48.690;9.466;2022-10-16T16:59:12;17.90;99.90
18974;DHT22;9621;48.690;9.466;2022-10-16T17:01:39;17.70;99.90
18974;DHT22;9621;48.690;9.466;2022-10-16T17:04:06;17.60;99.90
18974;DHT22;9621;48.690;9.466;2022-10-16T17:06:33;17.40;99.90
18974;DHT22;9621;48.690;9.466;2022-10-16T17:09:01;17.30;99.90
18974;DHT22;9621;48.690;9.466;2022-10-16T17:11:29;17.10;99.90
18974;DHT22;9621;48.690;9.466;2022-10-16T17:13:58;17.00;99.90
18974;DHT22;9621;48.690;9.466;2022-10-16T17:16:27;16.90;99.90
18974;DHT22;9621;48.690;9.466;2022-10-16T17:18:54;16.80;99.90
18974;DHT22;9621;48.690;9.466;2022-10-16T17:21:21;16.70;99.90
18974;DHT22;9621;48.690;9.466;2022-10-16T17:23:50;16.60;99.90
18974;DHT22;9621;48.690;9.466;2022-10-16T17:26:17;16.60;99.90
18974;DHT22;9621;48.690;9.466;2022-10-16T17:28:45;16.50;99.90
18974;DHT22;9621;48.690;9.466;2022-10-16T17:31:15;16.40;99.90
18974;DHT22;9621;48.690;9.466;2022-10-16T17:33:42;16.30;99.90
18974;DHT22;9621;48.690;9.466;2022-10-16T17:36:10;16.20;99.90
18974;DHT22;9621;48.690;9.466;2022-10-16T17:38:39;16.10;99.90
18974;DHT22;9621;48.690;9.466;2022-10-16T17:41:17;16.10;99.90
18974;DHT22;9621;48.690;9.466;2022-10-16T17:43:45;16.00;99.90
18974;DHT22;9621;48.690;9.466;2022-10-16T17:46:15;16.00;99.90
18974;DHT22;9621;48.690;9.466;2022-10-16T17:48:44;15.90;99.90
18974;DHT22;9621;48.690;9.466;2022-10-16T17:51:13;15.80;99.90
18974;DHT22;9621;48.690;9.466;2022-10-16T17:53:41;15.70;99.90
18974;DHT22;9621;48.690;9.466;2022-10-16T17:56:09;15.60;99.90
18974;DHT22;9621;48.690;9.466;2022-10-16T17:58:37;15.60;99.90
18974;DHT22;9621;48.690;9.466;2022-10-16T18:01:13;15.50;99.90
18974;DHT22;9621;48.690;9.466;2022-10-16T18:03:40;15.50;99.90
18974;DHT22;9621;48.690;9.466;2022-10-16T18:06:07;15.40;99.90
18974;DHT22;9621;48.690;9.466;2022-10-16T18:08:34;15.40;99.90
18974;DHT22;9621;48.690;9.466;2022-10-16T18:11:02;15.30;99.90
18974;DHT22;9621;48.690;9.466;2022-10-16T18:13:30;15.20;99.90
18974;DHT22;9621;48.690;9.466;2022-10-16T18:16:01;15.10;99.90
18974;DHT22;9621;48.690;9.466;2022-10-16T18:18:29;15.00;99.90
18974;DHT22;9621;48.690;9.466;2022-10-16T18:20:56;14.90;99.90
18974;DHT22;9621;48.690;9.466;2022-10-16T18:23:23;15.00;99.90
18974;DHT22;9621;48.690;9.466;2022-10-16T18:25:50;14.70;99.90
18974;DHT22;9621;48.690;9.466;2022-10-16T18:28:18;14.70;99.90
18974;DHT22;9621;48.690;9.466;2022-10-16T18:30:45;14.60;99.90
18974;DHT22;9621;48.690;9.466;2022-10-16T18:33:23;14.50;99.90